createdAt,value
2022-10-05T00:01:21.606Z,4.47
2022-10-05T00:03:50.092Z,4.40
2022-10-05T00:06:19.931Z,4.63
2022-10-05T00:08:48.070Z,4.37
2022-10-05T00:11:17.123Z,3.70
2022-10-05T00:13:45.275Z,4.67
2022-10-05T00:16:17.227Z,4.00
2022-10-05T00:18:48.503Z,3.67
2022-10-05T00:21:24.199Z,4.47
2022-10-05T00:23:53.007Z,3.90
2022-10-05T00:26:24.045Z,4.20
2022-10-05T00:28:53.276Z,4.30
2022-10-05T00:31:24.771Z,4.23
2022-10-05T00:33:54.885Z,4.40
2022-10-05T00:36:26.089Z,4.13
2022-10-05T00:38:55.685Z,3.80
2022-10-05T00:41:31.042Z,3.70
2022-10-05T00:44:28.963Z,4.20
2022-10-05T00:47:03.880Z,4.07
2022-10-05T00:49:56.334Z,4.40
2022-10-05T00:52:34.045Z,4.67
2022-10-05T00:55:12.313Z,4.57
2022-10-05T00:57:51.989Z,4.40
2022-10-05T01:00:24.529Z,4.17
2022-10-05T01:02:58.994Z,4.30
2022-10-05T01:05:47.146Z,3.80
2022-10-05T01:08:27.001Z,5.00
2022-10-05T01:11:04.876Z,5.13
2022-10-05T01:13:43.889Z,4.60
2022-10-05T01:16:17.665Z,4.37
2022-10-05T01:18:52.155Z,5.37
2022-10-05T01:21:23.096Z,4.80
2022-10-05T01:24:27.607Z,4.43
2022-10-05T01:27:16.764Z,4.37
2022-10-05T01:29:54.649Z,4.83
2022-10-05T01:32:32.958Z,4.90
2022-10-05T01:35:14.786Z,4.80
2022-10-05T01:37:52.959Z,4.80
2022-10-05T01:40:31.198Z,4.53
2022-10-05T01:43:05.769Z,4.20
2022-10-05T01:45:46.851Z,4.90
2022-10-05T01:48:23.449Z,4.43
2022-10-05T01:51:01.615Z,4.13
2022-10-05T01:53:43.501Z,4.47
2022-10-05T01:56:20.390Z,4.47
2022-10-05T01:58:56.460Z,5.10
2022-10-05T02:01:32.403Z,4.53
2022-10-05T02:04:07.101Z,5.00
2022-10-05T02:06:41.513Z,4.20
2022-10-05T02:09:16.182Z,4.23
2022-10-05T02:11:50.386Z,4.67
2022-10-05T02:14:23.745Z,4.20
2022-10-05T02:16:55.587Z,4.07
2022-10-05T02:19:30.579Z,4.90
2022-10-05T02:22:04.571Z,5.17
2022-10-05T02:24:40.414Z,4.50
2022-10-05T02:27:11.843Z,5.07
2022-10-05T02:29:46.222Z,4.30
2022-10-05T02:32:19.219Z,4.83
2022-10-05T02:34:47.363Z,3.90
2022-10-05T02:37:35.793Z,5.10
2022-10-05T02:40:19.871Z,4.33
2022-10-05T02:42:57.414Z,4.60
2022-10-05T02:45:37.582Z,4.60
2022-10-05T02:48:13.408Z,4.90
2022-10-05T02:50:50.571Z,4.83
2022-10-05T02:53:29.366Z,5.03
2022-10-05T02:56:11.047Z,5.07
2022-10-05T02:58:46.763Z,3.90
2022-10-05T03:01:25.438Z,4.30
2022-10-05T03:04:06.003Z,5.00
2022-10-05T03:06:40.624Z,4.70
2022-10-05T03:09:11.268Z,4.60
2022-10-05T03:11:48.103Z,4.90
2022-10-05T03:14:24.486Z,5.10
2022-10-05T03:17:06.795Z,4.40
2022-10-05T03:19:55.982Z,5.80
2022-10-05T03:22:32.186Z,5.30
2022-10-05T03:25:28.562Z,5.20
2022-10-05T03:28:06.657Z,5.10
2022-10-05T03:30:40.194Z,4.63
2022-10-05T03:33:17.854Z,4.80
2022-10-05T03:35:54.343Z,4.60
2022-10-05T03:38:31.746Z,5.10
2022-10-05T03:41:09.905Z,4.70
2022-10-05T03:43:54.786Z,4.93
2022-10-05T03:46:31.784Z,4.50
2022-10-05T03:49:08.505Z,4.70
2022-10-05T03:51:43.718Z,4.93
2022-10-05T03:54:23.721Z,4.37
2022-10-05T03:56:56.753Z,12.03
2022-10-05T03:59:32.717Z,50.17
2022-10-05T04:02:09.610Z,40.40
2022-10-05T04:04:42.585Z,55.17
2022-10-05T04:07:29.327Z,30.50
2022-10-05T04:10:02.264Z,18.30
2022-10-05T04:12:38.620Z,12.00
2022-10-05T04:15:19.652Z,8.63
2022-10-05T04:17:53.249Z,6.90
2022-10-05T04:20:27.380Z,5.60
2022-10-05T04:23:03.675Z,4.60
2022-10-05T04:25:38.566Z,5.27
2022-10-05T04:28:15.184Z,3.90
2022-10-05T04:30:49.059Z,4.23
2022-10-05T04:33:19.687Z,4.03
2022-10-05T04:36:04.406Z,4.60
2022-10-05T04:38:48.398Z,4.00
2022-10-05T04:41:40.928Z,4.70
2022-10-05T04:44:35.559Z,3.80
2022-10-05T04:47:22.931Z,3.90
2022-10-05T04:50:09.643Z,126.20
2022-10-05T04:52:50.300Z,97.57
2022-10-05T04:55:33.217Z,47.87
2022-10-05T04:58:12.765Z,25.00
2022-10-05T05:00:51.869Z,15.50
2022-10-05T05:03:44.186Z,11.30
2022-10-05T05:06:25.972Z,8.47
2022-10-05T05:09:52.445Z,6.80
2022-10-05T05:12:30.995Z,5.10
2022-10-05T05:15:27.668Z,4.93
2022-10-05T05:18:34.939Z,4.40
2022-10-05T05:21:14.678Z,4.60
2022-10-05T05:23:50.340Z,4.40
2022-10-05T05:26:28.282Z,4.40
2022-10-05T05:29:09.876Z,4.63
2022-10-05T05:31:46.029Z,13.00
2022-10-05T05:34:33.619Z,91.37
2022-10-05T05:37:12.385Z,49.80
2022-10-05T05:39:48.340Z,26.93
2022-10-05T05:42:35.355Z,20.03
2022-10-05T05:45:18.347Z,11.07
2022-10-05T05:47:53.749Z,8.50
2022-10-05T05:50:42.123Z,6.10
2022-10-05T05:53:18.828Z,4.87
2022-10-05T05:55:52.823Z,4.50
2022-10-05T05:58:26.285Z,4.20
2022-10-05T06:01:02.638Z,4.50
2022-10-05T06:03:39.379Z,3.60
2022-10-05T06:06:12.420Z,4.40
2022-10-05T06:08:44.701Z,4.17
2022-10-05T06:11:42.365Z,4.40
2022-10-05T06:14:14.791Z,4.03
2022-10-05T06:16:51.283Z,4.27
2022-10-05T06:19:22.843Z,4.40
2022-10-05T06:21:57.468Z,4.60
2022-10-05T06:24:30.955Z,4.30
2022-10-05T06:27:27.596Z,3.60
2022-10-05T06:30:06.779Z,4.50
2022-10-05T06:32:53.983Z,3.73
2022-10-05T06:35:36.754Z,4.60
2022-10-05T06:38:18.199Z,4.00
2022-10-05T06:41:00.744Z,4.50
2022-10-05T06:43:54.210Z,3.40
2022-10-05T06:47:05.729Z,3.70
2022-10-05T06:50:04.955Z,3.40
2022-10-05T06:53:03.796Z,3.33
2022-10-05T06:55:39.221Z,4.30
2022-10-05T06:58:22.180Z,4.10
2022-10-05T07:00:55.322Z,3.93
2022-10-05T07:03:33.177Z,3.90
2022-10-05T07:06:12.357Z,3.20
2022-10-05T07:09:02.575Z,3.87
2022-10-05T07:11:54.628Z,3.50
2022-10-05T07:14:38.002Z,3.67
2022-10-05T07:17:26.424Z,3.67
2022-10-05T07:20:04.439Z,4.43
2022-10-05T07:22:51.517Z,3.77
2022-10-05T07:25:24.035Z,3.47
2022-10-05T07:27:57.315Z,3.30
2022-10-05T07:30:26.102Z,2.93
2022-10-05T07:33:01.619Z,3.60
2022-10-05T07:35:58.148Z,4.60
2022-10-05T07:38:33.035Z,4.07
2022-10-05T07:41:07.371Z,4.00
2022-10-05T07:44:01.561Z,3.83
2022-10-05T07:46:45.026Z,3.70
2022-10-05T07:49:24.345Z,3.20
2022-10-05T07:51:57.117Z,3.43
2022-10-05T07:54:32.511Z,3.67
2022-10-05T07:57:12.603Z,3.30
2022-10-05T07:59:46.400Z,3.00
2022-10-05T08:02:23.722Z,3.20
2022-10-05T08:04:58.368Z,3.13
2022-10-05T08:07:29.252Z,3.43
2022-10-05T08:10:04.933Z,3.00
2022-10-05T08:12:37.049Z,3.50
2022-10-05T08:15:12.943Z,4.20
2022-10-05T08:17:49.527Z,3.27
2022-10-05T08:20:31.062Z,3.40
2022-10-05T08:23:03.218Z,3.80
2022-10-05T08:25:42.139Z,4.20
2022-10-05T08:28:18.677Z,3.30
2022-10-05T08:30:55.441Z,3.37
2022-10-05T08:33:24.893Z,3.03
2022-10-05T08:36:03.828Z,2.73
2022-10-05T08:38:34.810Z,3.63
2022-10-05T08:41:36.109Z,2.43
2022-10-05T08:44:46.690Z,2.90
2022-10-05T08:47:23.024Z,2.87
2022-10-05T08:50:09.160Z,2.83
2022-10-05T08:52:55.379Z,2.87
2022-10-05T08:55:42.240Z,2.40
2022-10-05T08:58:55.170Z,2.73
2022-10-05T09:01:35.193Z,29.50
2022-10-05T09:04:18.015Z,23.13
2022-10-05T09:07:08.880Z,13.97
2022-10-05T09:10:01.709Z,10.00
2022-10-05T09:12:47.572Z,7.20
2022-10-05T09:15:45.041Z,5.67
2022-10-05T09:18:37.100Z,4.53
2022-10-05T09:21:13.951Z,4.47
2022-10-05T09:23:43.908Z,4.10
2022-10-05T09:26:45.692Z,3.20
2022-10-05T09:29:52.869Z,3.10
2022-10-05T09:33:04.965Z,3.03
2022-10-05T09:36:03.528Z,2.50
2022-10-05T09:38:47.565Z,2.50
2022-10-05T09:41:50.737Z,2.33
2022-10-05T09:45:00.374Z,1.87
2022-10-05T09:48:01.918Z,2.30
2022-10-05T09:53:59.079Z,1.80
2022-10-05T09:57:00.050Z,1.50
2022-10-05T10:00:05.058Z,1.70
2022-10-05T10:03:45.648Z,1.43
2022-10-05T10:06:35.084Z,2.10
2022-10-05T10:09:27.236Z,1.90
2022-10-05T10:12:14.914Z,1.63
2022-10-05T10:15:29.929Z,1.60
2022-10-05T10:18:27.806Z,1.57
2022-10-05T10:21:33.191Z,1.83
2022-10-05T10:24:14.837Z,1.60
2022-10-05T10:27:02.674Z,1.50
2022-10-05T10:29:46.648Z,38.43
2022-10-05T10:32:39.397Z,50.20
2022-10-05T10:35:23.101Z,15.80
2022-10-05T10:38:22.185Z,5.50
2022-10-05T10:41:06.688Z,3.13
2022-10-05T10:44:11.097Z,2.03
2022-10-05T10:46:50.079Z,2.13
2022-10-05T10:49:34.752Z,1.63
2022-10-05T10:52:13.737Z,1.77
2022-10-05T10:55:06.413Z,1.43
2022-10-05T10:57:45.821Z,1.40
2022-10-05T11:00:30.267Z,1.60
2022-10-05T11:03:14.347Z,2.00
2022-10-05T11:06:02.396Z,1.50
2022-10-05T11:09:02.486Z,1.60
2022-10-05T11:12:06.533Z,1.90
2022-10-05T11:14:52.375Z,1.67
2022-10-05T11:17:31.756Z,1.47
2022-10-05T11:20:19.481Z,1.70
2022-10-05T11:22:58.545Z,1.40
2022-10-05T11:25:47.231Z,1.33
2022-10-05T11:28:55.122Z,1.50
2022-10-05T11:31:49.099Z,1.93
2022-10-05T11:34:57.013Z,1.57
2022-10-05T11:37:53.635Z,1.97
2022-10-05T11:41:02.164Z,1.90
2022-10-05T11:43:45.302Z,1.50
2022-10-05T11:46:20.298Z,1.37
2022-10-05T11:49:01.638Z,1.40
2022-10-05T11:51:43.642Z,1.73
2022-10-05T11:54:26.495Z,1.53
2022-10-05T11:57:01.699Z,1.27
2022-10-05T11:59:36.155Z,1.60
2022-10-05T12:02:22.671Z,1.60
2022-10-05T12:05:00.934Z,1.70
2022-10-05T12:07:37.344Z,1.70
2022-10-05T12:10:20.301Z,1.43
2022-10-05T12:13:03.508Z,1.20
2022-10-05T12:15:42.486Z,2.20
2022-10-05T12:18:16.927Z,1.50
2022-10-05T12:20:51.329Z,1.63
2022-10-05T12:23:26.594Z,1.83
2022-10-05T12:26:02.501Z,1.60
2022-10-05T12:28:36.290Z,1.83
2022-10-05T12:31:17.872Z,25.93
2022-10-05T12:33:53.758Z,31.47
2022-10-05T12:36:52.572Z,11.13
2022-10-05T12:39:27.779Z,4.00
2022-10-05T12:42:04.730Z,2.17
2022-10-05T12:44:50.497Z,1.67
2022-10-05T12:47:25.471Z,1.20
2022-10-05T12:50:20.139Z,1.40
2022-10-05T12:53:05.347Z,1.20
2022-10-05T12:55:42.581Z,1.20
2022-10-05T12:58:23.936Z,1.40
2022-10-05T13:01:01.419Z,1.30
2022-10-05T13:03:35.467Z,1.60
2022-10-05T13:06:13.579Z,1.50
2022-10-05T13:08:51.191Z,1.47
2022-10-05T13:11:27.377Z,1.30
2022-10-05T13:14:07.463Z,1.77
2022-10-05T13:16:41.307Z,1.60
2022-10-05T13:19:32.558Z,1.63
2022-10-05T13:22:17.806Z,1.53
2022-10-05T13:24:59.267Z,1.10
2022-10-05T13:27:31.893Z,1.10
2022-10-05T13:30:06.707Z,1.20
2022-10-05T13:32:37.628Z,1.60
2022-10-05T13:35:23.496Z,1.70
2022-10-05T13:38:02.300Z,1.13
2022-10-05T13:40:36.643Z,1.57
2022-10-05T13:43:13.511Z,1.13
2022-10-05T13:45:52.703Z,1.60
2022-10-05T13:48:42.264Z,1.07
2022-10-05T13:51:17.924Z,1.20
2022-10-05T13:53:50.427Z,1.50
2022-10-05T13:56:23.504Z,1.03
2022-10-05T13:58:56.601Z,1.10
2022-10-05T14:01:36.038Z,1.50
2022-10-05T14:04:06.919Z,1.50
2022-10-05T14:06:39.851Z,1.20
2022-10-05T14:09:14.993Z,1.40
2022-10-05T14:11:51.548Z,1.00
2022-10-05T14:14:28.154Z,1.07
2022-10-05T14:16:58.997Z,1.50
2022-10-05T14:19:32.099Z,1.10
2022-10-05T14:22:03.264Z,1.00
2022-10-05T14:24:48.921Z,1.23
2022-10-05T14:27:27.561Z,1.00
2022-10-05T14:30:02.213Z,1.27
2022-10-05T14:32:34.429Z,1.13
2022-10-05T14:35:15.402Z,1.57
2022-10-05T14:37:52.172Z,6.43
2022-10-05T14:40:28.862Z,34.37
2022-10-05T14:43:01.067Z,6.00
2022-10-05T14:45:30.857Z,2.80
2022-10-05T14:48:10.992Z,1.50
2022-10-05T14:50:53.204Z,1.60
2022-10-05T14:53:24.580Z,1.53
2022-10-05T14:56:33.160Z,1.40
2022-10-05T14:59:14.981Z,1.70
2022-10-05T15:01:52.952Z,1.53
2022-10-05T15:04:33.794Z,1.67
2022-10-05T15:07:13.817Z,1.83
2022-10-05T15:10:03.658Z,1.20
2022-10-05T15:12:35.696Z,1.47
2022-10-05T15:15:18.193Z,1.67
2022-10-05T15:17:52.602Z,1.73
2022-10-05T15:20:26.673Z,1.40
2022-10-05T15:23:05.224Z,1.63
2022-10-05T15:25:40.317Z,1.80
2022-10-05T15:28:16.625Z,1.67
2022-10-05T15:30:53.786Z,1.50
2022-10-05T15:33:28.768Z,1.30
2022-10-05T15:36:06.359Z,1.70
2022-10-05T15:38:50.063Z,1.60
2022-10-05T15:41:21.513Z,5.87
2022-10-05T15:44:01.118Z,16.43
2022-10-05T15:46:36.560Z,5.40
2022-10-05T15:49:19.143Z,2.37
2022-10-05T15:51:59.511Z,2.60
2022-10-05T15:54:56.132Z,2.00
2022-10-05T15:57:34.651Z,1.70
2022-10-05T16:00:10.254Z,1.27
2022-10-05T16:02:44.511Z,1.50
2022-10-05T16:05:42.280Z,1.80
2022-10-05T16:08:38.331Z,1.60
2022-10-05T16:11:19.070Z,1.37
2022-10-05T16:13:59.705Z,1.30
2022-10-05T16:16:38.685Z,1.50
2022-10-05T16:19:15.984Z,1.93
2022-10-05T16:21:54.105Z,1.50
2022-10-05T16:24:41.875Z,1.33
2022-10-05T16:27:18.578Z,1.40
2022-10-05T16:29:56.010Z,1.60
2022-10-05T16:32:31.263Z,1.70
2022-10-05T16:35:15.886Z,1.87
2022-10-05T16:37:50.832Z,2.00
2022-10-05T16:40:28.513Z,2.27
2022-10-05T16:43:07.065Z,2.17
2022-10-05T16:45:51.739Z,1.90
2022-10-05T16:48:26.250Z,2.00
2022-10-05T16:51:19.363Z,2.20
2022-10-05T16:53:59.140Z,2.20
2022-10-05T16:56:34.408Z,1.70
2022-10-05T16:59:32.570Z,2.07
2022-10-05T17:02:08.020Z,2.20
2022-10-05T17:04:46.018Z,2.00
2022-10-05T17:07:40.896Z,1.90
2022-10-05T17:10:28.285Z,1.90
2022-10-05T17:13:06.128Z,2.13
2022-10-05T17:15:42.346Z,1.40
2022-10-05T17:18:31.841Z,2.20
2022-10-05T17:21:07.784Z,21.83
2022-10-05T17:23:55.245Z,11.87
2022-10-05T17:26:54.709Z,4.93
2022-10-05T17:29:47.479Z,3.40
2022-10-05T17:32:36.193Z,2.00
2022-10-05T17:35:19.241Z,1.90
2022-10-05T17:38:16.012Z,1.80
2022-10-05T17:41:20.270Z,1.83
2022-10-05T17:44:36.238Z,2.00
2022-10-05T17:47:08.993Z,1.67
2022-10-05T17:50:08.967Z,2.10
2022-10-05T17:52:58.794Z,1.83
2022-10-05T17:55:47.491Z,2.37
2022-10-05T17:59:01.647Z,1.90
2022-10-05T18:01:36.840Z,1.87
2022-10-05T18:04:30.508Z,1.93
2022-10-05T18:07:18.112Z,1.70
2022-10-05T18:10:20.206Z,1.70
2022-10-05T18:12:50.453Z,1.63
2022-10-05T18:15:45.133Z,2.10
2022-10-05T18:18:54.636Z,2.03
2022-10-05T18:21:58.640Z,1.90
2022-10-05T18:24:53.154Z,1.70
2022-10-05T18:27:50.653Z,2.20
2022-10-05T18:30:22.572Z,1.50
2022-10-05T18:33:20.426Z,2.27
2022-10-05T18:36:04.502Z,1.80
2022-10-05T18:38:43.535Z,1.80
2022-10-05T18:41:19.831Z,1.63
2022-10-05T18:43:59.172Z,1.70
2022-10-05T18:46:38.804Z,1.87
2022-10-05T18:49:20.025Z,1.73
2022-10-05T18:51:57.493Z,1.67
2022-10-05T18:54:54.145Z,1.67
2022-10-05T18:58:03.167Z,1.60
2022-10-05T19:00:45.670Z,1.70
2022-10-05T19:03:23.743Z,1.77
2022-10-05T19:06:00.569Z,1.83
2022-10-05T19:08:39.145Z,2.07
2022-10-05T19:11:19.006Z,2.03
2022-10-05T19:13:57.521Z,2.23
2022-10-05T19:16:49.818Z,1.80
2022-10-05T19:19:53.936Z,1.90
2022-10-05T19:22:38.392Z,2.10
2022-10-05T19:25:26.347Z,1.63
2022-10-05T19:28:04.744Z,1.83
2022-10-05T19:30:55.713Z,1.87
2022-10-05T19:33:45.395Z,1.87
2022-10-05T19:36:31.811Z,1.90
2022-10-05T19:39:09.931Z,1.70
2022-10-05T19:42:04.261Z,1.87
2022-10-05T19:44:48.987Z,1.70
2022-10-05T19:47:28.281Z,4.87
2022-10-05T19:50:03.966Z,36.63
2022-10-05T19:52:47.637Z,10.13
2022-10-05T19:55:26.671Z,4.70
2022-10-05T19:57:59.883Z,2.67
2022-10-05T20:00:33.260Z,2.00
2022-10-05T20:03:13.047Z,1.47
2022-10-05T20:05:42.067Z,1.70
2022-10-05T20:08:18.672Z,1.50
2022-10-05T20:10:47.854Z,2.00
2022-10-05T20:13:22.676Z,1.67
2022-10-05T20:16:41.082Z,1.50
2022-10-05T20:19:50.650Z,2.00
2022-10-05T20:22:31.514Z,2.07
2022-10-05T20:25:02.137Z,1.70
2022-10-05T20:27:47.421Z,1.70
2022-10-05T20:30:21.660Z,1.80
2022-10-05T20:32:50.485Z,1.40
2022-10-05T20:35:21.822Z,1.73
2022-10-05T20:37:50.959Z,1.50
2022-10-05T20:40:20.312Z,1.70
2022-10-05T20:42:49.034Z,1.80
2022-10-05T20:45:18.680Z,1.70
2022-10-05T20:47:47.319Z,2.03
2022-10-05T20:50:16.071Z,1.47
2022-10-05T20:52:45.389Z,1.93
2022-10-05T20:55:13.776Z,1.93
2022-10-05T20:57:42.609Z,2.13
2022-10-05T21:00:12.854Z,2.30
2022-10-05T21:02:42.504Z,2.13
2022-10-05T21:05:11.133Z,2.10
2022-10-05T21:07:40.898Z,2.17
2022-10-05T21:10:09.937Z,1.90
2022-10-05T21:12:38.128Z,1.87
2022-10-05T21:15:07.452Z,2.13
2022-10-05T21:17:36.325Z,2.20
2022-10-05T21:20:07.358Z,1.93
2022-10-05T21:22:36.359Z,2.10
2022-10-05T21:25:04.739Z,2.23
2022-10-05T21:27:33.106Z,2.57
2022-10-05T21:30:01.398Z,2.33
2022-10-05T21:32:29.666Z,1.77
2022-10-05T21:34:58.264Z,2.33
2022-10-05T21:37:27.830Z,1.70
2022-10-05T21:39:55.963Z,1.93
2022-10-05T21:42:24.087Z,2.27
2022-10-05T21:44:52.251Z,2.30
2022-10-05T21:47:20.477Z,2.27
2022-10-05T21:49:48.684Z,2.40
2022-10-05T21:52:16.853Z,1.40
2022-10-05T21:54:46.873Z,1.70
2022-10-05T21:57:15.406Z,1.50
2022-10-05T21:59:44.443Z,1.70
2022-10-05T22:02:12.582Z,1.47
2022-10-05T22:04:41.032Z,1.43
2022-10-05T22:07:19.041Z,1.53
2022-10-05T22:09:49.764Z,1.40
2022-10-05T22:12:19.726Z,1.40
2022-10-05T22:14:47.887Z,1.10
2022-10-05T22:17:19.898Z,1.20
2022-10-05T22:19:48.105Z,1.27
2022-10-05T22:22:16.394Z,1.10
2022-10-05T22:24:44.718Z,1.27
2022-10-05T22:27:15.199Z,1.00
2022-10-05T22:29:44.216Z,1.20
2022-10-05T22:32:12.490Z,1.13
2022-10-05T22:34:41.256Z,0.90
2022-10-05T22:37:12.963Z,1.33
2022-10-05T22:39:41.507Z,1.00
2022-10-05T22:42:10.283Z,1.30
2022-10-05T22:44:40.520Z,1.27
2022-10-05T22:47:08.733Z,1.50
2022-10-05T22:49:37.056Z,1.07
2022-10-05T22:52:05.313Z,1.40
2022-10-05T22:54:37.084Z,1.20
2022-10-05T22:57:05.657Z,0.90
2022-10-05T22:59:34.089Z,0.90
2022-10-05T23:02:03.690Z,1.20
2022-10-05T23:04:32.031Z,0.97
2022-10-05T23:07:00.185Z,0.93
2022-10-05T23:09:28.362Z,0.80
2022-10-05T23:11:56.511Z,0.90
2022-10-05T23:14:24.664Z,0.80
2022-10-05T23:16:52.836Z,0.60
2022-10-05T23:19:23.245Z,0.80
2022-10-05T23:21:51.603Z,0.90
2022-10-05T23:24:19.718Z,0.80
2022-10-05T23:26:47.936Z,1.13
2022-10-05T23:29:16.058Z,0.80
2022-10-05T23:31:44.441Z,0.83
2022-10-05T23:34:12.580Z,2.00
2022-10-05T23:36:42.366Z,1.07
2022-10-05T23:39:10.561Z,0.87
2022-10-05T23:41:38.724Z,0.83
2022-10-05T23:44:06.936Z,1.30
2022-10-05T23:46:35.124Z,1.10
2022-10-05T23:49:03.383Z,1.13
2022-10-05T23:51:31.557Z,0.77
2022-10-05T23:54:01.106Z,0.70
2022-10-05T23:56:29.281Z,1.03
2022-10-05T23:58:57.426Z,0.70
